Time;durP1;ratioP1;P1;durP2;ratioP2;P2;SDS_P1;SDS_P2;PMS_P1;PMS_P2;Temp;Humidity;BMP_temperature;BMP_pressure;BME280_temperature;BME280_humidity;BME280_pressure;Samples;Min_cycle;Max_cycle;Signal;HPM_P1;HPM_P2
2023/02/01 00:02:18;;;;;;;19.17;3.43;;;4.90;99.90;;;;;;5015691;28;20223;-49
2023/02/01 00:04:46;;;;;;;24.90;4.87;;;4.90;99.90;;;;;;5019490;28;20702;-53
2023/02/01 00:07:13;;;;;;;18.07;3.30;;;4.80;99.90;;;;;;5023001;28;20215;-51
2023/02/01 00:09:40;;;;;;;22.17;3.73;;;4.80;99.90;;;;;;5014483;27;20196;-54
2023/02/01 00:12:06;;;;;;;17.33;2.80;;;4.80;99.90;;;;;;5017578;27;20310;-49
2023/02/01 00:14:38;;;;;;;18.00;3.03;;;4.90;99.90;;;;;;5021669;28;20224;-54
2023/02/01 00:17:06;;;;;;;16.30;3.03;;;4.80;99.90;;;;;;5014026;28;20280;-50
2023/02/01 00:19:33;;;;;;;22.60;4.13;;;4.90;99.90;;;;;;5014135;28;20307;-54
2023/02/01 00:22:02;;;;;;;18.57;3.60;;;4.90;99.90;;;;;;5019938;28;20207;-52
2023/02/01 00:24:29;;;;;;;28.43;4.47;;;4.90;99.90;;;;;;5020751;28;20220;-52
2023/02/01 00:26:56;;;;;;;19.30;3.60;;;5.00;99.90;;;;;;5007075;27;20196;-52
2023/02/01 00:29:23;;;;;;;20.63;3.60;;;5.00;99.90;;;;;;5017449;28;20227;-52
2023/02/01 00:31:51;;;;;;;29.60;5.33;;;5.00;99.90;;;;;;5017549;28;20187;-53
2023/02/01 00:34:19;;;;;;;19.03;4.30;;;5.10;99.90;;;;;;5013275;27;20243;-53
2023/02/01 00:36:46;;;;;;;21.47;4.10;;;5.10;99.90;;;;;;5019227;28;20295;-55
2023/02/01 00:39:14;;;;;;;18.17;3.50;;;5.10;99.90;;;;;;5021009;28;20200;-53
2023/02/01 00:41:41;;;;;;;23.07;4.40;;;5.10;99.90;;;;;;5009519;27;20321;-55
2023/02/01 00:44:10;;;;;;;25.17;4.70;;;5.10;99.90;;;;;;5020626;28;20585;-50
2023/02/01 00:46:37;;;;;;;19.57;4.07;;;5.10;99.90;;;;;;5021059;28;20204;-53
2023/02/01 00:49:05;;;;;;;22.80;4.13;;;5.20;99.90;;;;;;5011706;28;22728;-53
2023/02/01 00:51:32;;;;;;;23.40;3.40;;;5.20;99.90;;;;;;5021985;28;20200;-54
2023/02/01 00:54:00;;;;;;;15.07;3.33;;;5.20;99.90;;;;;;5017779;28;20227;-51
2023/02/01 00:56:28;;;;;;;24.40;4.60;;;5.20;99.90;;;;;;5029111;27;20197;-53
2023/02/01 00:58:55;;;;;;;17.73;4.67;;;5.30;99.90;;;;;;5018378;28;20290;-49
2023/02/01 01:01:24;;;;;;;23.20;4.63;;;5.30;99.90;;;;;;5022489;28;20231;-52
2023/02/01 01:03:53;;;;;;;31.93;4.53;;;5.30;99.90;;;;;;5017822;28;20984;-54
2023/02/01 01:06:23;;;;;;;17.80;4.60;;;5.40;99.90;;;;;;5013436;27;20212;-53
2023/02/01 01:08:52;;;;;;;20.20;3.83;;;5.40;99.90;;;;;;5017764;28;20184;-51
2023/02/01 01:11:23;;;;;;;23.40;4.07;;;5.40;99.90;;;;;;5011600;27;20782;-51
2023/02/01 01:13:52;;;;;;;17.63;4.40;;;5.50;99.90;;;;;;5017602;28;20230;-52
2023/02/01 01:16:20;;;;;;;26.47;4.73;;;5.50;99.90;;;;;;5022029;28;20199;-52
2023/02/01 01:18:48;;;;;;;26.77;5.10;;;5.50;99.90;;;;;;5018260;28;20227;-55
2023/02/01 01:21:17;;;;;;;17.00;4.07;;;5.50;99.90;;;;;;5014850;28;20235;-49
2023/02/01 01:23:45;;;;;;;29.10;4.53;;;5.50;99.90;;;;;;5018876;28;20718;-56
2023/02/01 01:26:14;;;;;;;21.33;5.23;;;5.50;99.90;;;;;;5009641;27;20200;-49
2023/02/01 01:28:41;;;;;;;22.27;3.97;;;5.50;99.90;;;;;;5016478;28;20204;-54
2023/02/01 01:31:10;;;;;;;40.93;5.20;;;5.50;99.90;;;;;;5020936;28;20196;-51
2023/02/01 01:33:38;;;;;;;25.93;5.80;;;5.50;99.90;;;;;;5004776;27;20260;-54
2023/02/01 01:36:05;;;;;;;28.77;4.70;;;5.60;99.90;;;;;;5012055;27;20579;-53
2023/02/01 01:38:32;;;;;;;32.80;3.80;;;5.60;99.90;;;;;;5018871;28;20212;-52
2023/02/01 01:40:59;;;;;;;23.97;4.20;;;5.60;99.90;;;;;;5020818;28;20212;-52
2023/02/01 01:43:41;;;;;;;23.70;3.73;;;5.60;99.90;;;;;;5007429;27;20211;-52
2023/02/01 01:46:10;;;;;;;21.33;4.40;;;5.60;99.90;;;;;;5019818;28;20206;-50
2023/02/01 01:48:37;;;;;;;28.00;6.07;;;5.60;99.90;;;;;;5003795;27;20884;-50
2023/02/01 01:51:06;;;;;;;24.80;4.70;;;5.60;99.90;;;;;;5008327;28;20219;-49
2023/02/01 01:53:38;;;;;;;24.10;4.20;;;5.70;99.90;;;;;;5011737;28;20202;-53
2023/02/01 01:56:06;;;;;;;21.57;3.87;;;5.70;99.90;;;;;;5019783;28;20215;-52
2023/02/01 01:58:34;;;;;;;25.10;4.93;;;5.70;99.90;;;;;;5007373;27;20220;-52
2023/02/01 02:01:01;;;;;;;22.07;3.60;;;5.70;99.90;;;;;;5019452;28;20196;-51
2023/02/01 02:03:33;;;;;;;25.27;4.90;;;5.60;99.90;;;;;;5018780;28;20286;-54
2023/02/01 02:06:02;;;;;;;20.43;3.90;;;5.70;99.90;;;;;;5021599;28;20208;-49
2023/02/01 02:08:30;;;;;;;24.37;4.47;;;5.70;99.90;;;;;;5011246;28;20224;-53
2023/02/01 02:11:03;;;;;;;19.50;4.13;;;5.70;99.90;;;;;;5018381;28;20205;-50
2023/02/01 02:13:33;;;;;;;22.70;4.17;;;5.70;99.90;;;;;;5010329;28;20767;-52
2023/02/01 02:16:11;;;;;;;24.47;4.60;;;5.80;99.90;;;;;;5017141;28;20232;-49
2023/02/01 02:18:47;;;;;;;23.70;5.03;;;5.70;99.90;;;;;;5016463;28;20220;-49
2023/02/01 02:21:18;;;;;;;26.33;5.13;;;5.70;99.90;;;;;;5010484;28;20253;-50
2023/02/01 02:24:35;;;;;;;25.63;5.37;;;5.80;99.90;;;;;;5010152;28;20324;-47
2023/02/01 02:27:24;;;;;;;22.23;4.67;;;5.80;99.90;;;;;;4912611;28;20218;-49
2023/02/01 02:30:29;;;;;;;29.07;5.10;;;5.80;99.90;;;;;;4916432;28;20229;-51
2023/02/01 02:33:30;;;;;;;27.00;5.00;;;5.80;99.90;;;;;;5011046;28;20220;-52
2023/02/01 02:36:04;;;;;;;25.10;5.23;;;5.80;99.90;;;;;;5018274;28;20310;-49
2023/02/01 02:38:36;;;;;;;21.00;4.83;;;5.80;99.90;;;;;;5004919;28;20211;-49
2023/02/01 02:47:23;;;;;;;24.10;4.60;;;5.80;99.90;;;;;;5033690;28;20674;-49
2023/02/01 02:54:45;;;;;;;22.33;4.10;;;5.80;99.90;;;;;;5017734;28;20909;-47
2023/02/01 02:55:32;;;;;;;21.10;3.87;;;5.60;99.90;;;;;;5008566;28;20683;-50
2023/02/01 03:06:18;;;;;;;31.67;4.07;;;5.50;99.90;;;;;;5019083;28;20220;-49
2023/02/01 03:08:46;;;;;;;19.27;4.30;;;5.40;99.90;;;;;;5005673;28;20200;-48
2023/02/01 03:11:15;;;;;;;19.10;4.60;;;5.40;99.90;;;;;;5013075;28;20215;-50
2023/02/01 03:13:46;;;;;;;24.63;4.60;;;5.30;99.90;;;;;;5011641;28;20213;-48
2023/02/01 03:16:21;;;;;;;21.63;3.73;;;5.30;99.90;;;;;;5018958;28;20203;-46
2023/02/01 03:18:53;;;;;;;26.50;4.00;;;5.30;99.90;;;;;;5011363;28;20223;-48
2023/02/01 03:21:25;;;;;;;18.13;4.10;;;5.30;99.90;;;;;;5017624;28;20203;-52
2023/02/01 03:23:59;;;;;;;19.20;4.17;;;5.20;99.90;;;;;;5010985;28;21048;-47
2023/02/01 03:26:29;;;;;;;22.93;4.07;;;5.20;99.90;;;;;;5009288;28;20294;-51
2023/02/01 03:29:00;;;;;;;21.20;3.90;;;5.20;99.90;;;;;;5019017;28;20229;-50
2023/02/01 03:31:29;;;;;;;20.30;3.57;;;5.20;99.90;;;;;;5014187;27;20210;-52
2023/02/01 03:33:56;;;;;;;21.30;3.43;;;5.20;99.90;;;;;;5017002;28;20228;-49
2023/02/01 03:36:29;;;;;;;14.40;3.77;;;5.10;99.90;;;;;;5020972;28;20245;-52
2023/02/01 03:39:03;;;;;;;22.17;4.40;;;5.10;99.90;;;;;;5012576;28;20273;-50
2023/02/01 03:41:38;;;;;;;10.87;3.17;;;5.10;99.90;;;;;;5012382;28;20268;-51
2023/02/01 03:44:14;;;;;;;16.67;3.73;;;5.10;99.90;;;;;;5019064;28;20305;-50
2023/02/01 03:46:44;;;;;;;18.57;4.53;;;5.10;99.90;;;;;;5017247;28;20299;-52
2023/02/01 03:49:19;;;;;;;19.43;3.53;;;5.10;99.90;;;;;;5010643;27;20203;-52
2023/02/01 03:51:45;;;;;;;10.53;2.70;;;5.10;99.90;;;;;;5019124;28;20214;-51
2023/02/01 03:54:16;;;;;;;18.47;3.63;;;5.10;99.90;;;;;;5013670;28;20223;-48
2023/02/01 03:56:46;;;;;;;16.97;2.53;;;5.10;99.90;;;;;;5012099;27;20284;-49
2023/02/01 03:59:13;;;;;;;12.53;2.60;;;5.10;99.90;;;;;;5021723;28;20216;-51
2023/02/01 04:01:41;;;;;;;15.47;3.20;;;5.10;99.90;;;;;;5010607;28;20963;-50
2023/02/01 04:04:30;;;;;;;15.63;3.00;;;5.10;99.90;;;;;;5006097;27;20263;-49
2023/02/01 04:06:57;;;;;;;13.20;3.07;;;5.10;99.90;;;;;;5022443;27;20597;-49
2023/02/01 04:09:26;;;;;;;22.03;4.03;;;5.10;99.90;;;;;;5011725;27;20211;-50
2023/02/01 04:11:52;;;;;;;18.67;3.20;;;5.10;99.90;;;;;;5010198;28;20246;-50
2023/02/01 04:14:19;;;;;;;17.10;3.27;;;5.10;99.90;;;;;;5019971;28;20679;-52
2023/02/01 04:16:46;;;;;;;18.93;3.60;;;5.10;99.90;;;;;;5015893;28;20222;-50
2023/02/01 04:19:12;;;;;;;15.70;3.17;;;5.10;99.90;;;;;;5008903;27;20691;-52
2023/02/01 04:21:39;;;;;;;11.13;2.80;;;5.10;99.90;;;;;;5008661;28;20196;-50
2023/02/01 04:24:08;;;;;;;14.50;2.90;;;5.00;99.90;;;;;;5015850;28;20247;-52
2023/02/01 04:26:36;;;;;;;17.83;2.87;;;5.00;99.90;;;;;;5004614;28;20191;-50
2023/02/01 04:29:03;;;;;;;7.37;1.60;;;5.00;99.90;;;;;;5011639;28;20208;-50
2023/02/01 04:31:30;;;;;;;11.33;1.93;;;4.90;99.90;;;;;;5018833;28;20258;-50
2023/02/01 04:33:58;;;;;;;5.97;1.73;;;4.80;99.90;;;;;;5004944;27;20293;-51
2023/02/01 04:36:25;;;;;;;8.73;2.00;;;4.80;99.90;;;;;;5018680;28;20200;-54
2023/02/01 04:38:52;;;;;;;14.47;3.20;;;4.80;99.90;;;;;;5006335;28;20224;-52
2023/02/01 04:41:19;;;;;;;13.17;2.63;;;4.80;99.90;;;;;;5007028;28;20303;-53
2023/02/01 04:43:48;;;;;;;16.50;3.00;;;4.90;99.90;;;;;;5008691;28;20255;-49
2023/02/01 04:46:15;;;;;;;17.73;3.07;;;4.90;99.90;;;;;;5019457;28;20565;-54
2023/02/01 04:48:42;;;;;;;16.87;3.47;;;4.90;99.90;;;;;;5015697;27;20189;-50
2023/02/01 04:51:09;;;;;;;22.83;3.13;;;4.90;99.90;;;;;;5010005;27;20659;-54
2023/02/01 04:53:36;;;;;;;15.33;2.40;;;4.90;99.90;;;;;;5007866;28;20262;-50
2023/02/01 04:56:04;;;;;;;11.77;2.40;;;4.90;99.90;;;;;;5022450;28;20197;-52
2023/02/01 04:58:31;;;;;;;12.10;2.27;;;4.80;99.90;;;;;;5005516;28;20225;-51
2023/02/01 05:00:59;;;;;;;10.57;2.73;;;4.80;99.90;;;;;;5022478;28;20220;-49
2023/02/01 05:03:27;;;;;;;8.03;1.90;;;4.80;99.90;;;;;;5003439;28;20720;-54
2023/02/01 05:05:54;;;;;;;9.50;2.33;;;4.80;99.90;;;;;;5008606;27;20207;-54
2023/02/01 05:08:22;;;;;;;5.90;1.43;;;4.70;99.90;;;;;;5016248;28;20204;-54
2023/02/01 05:10:49;;;;;;;6.43;1.80;;;4.70;99.90;;;;;;5015041;28;20282;-55
2023/02/01 05:16:02;;;;;;;5.13;1.67;;;4.70;99.90;;;;;;5011212;28;20192;-51
2023/02/01 05:18:29;;;;;;;7.93;1.70;;;4.70;99.90;;;;;;5013709;28;20202;-50
2023/02/01 05:20:56;;;;;;;11.20;2.00;;;4.70;99.90;;;;;;5006325;27;20208;-54
2023/02/01 05:23:23;;;;;;;4.73;1.07;;;4.70;99.90;;;;;;5012865;27;20208;-52
2023/02/01 05:25:50;;;;;;;4.90;1.10;;;4.60;99.90;;;;;;5009548;28;20208;-51
2023/02/01 05:28:17;;;;;;;5.23;1.10;;;4.60;99.90;;;;;;5014098;28;20226;-49
2023/02/01 05:30:44;;;;;;;4.57;1.07;;;4.50;99.90;;;;;;5013642;28;20216;-54
2023/02/01 05:33:12;;;;;;;3.97;0.80;;;4.50;99.90;;;;;;5015005;28;20188;-51
2023/02/01 05:35:39;;;;;;;3.40;0.70;;;4.40;99.90;;;;;;5020760;28;20261;-49
2023/02/01 05:38:06;;;;;;;1.97;0.57;;;4.40;99.90;;;;;;5005758;27;20208;-49
2023/02/01 05:40:32;;;;;;;4.20;0.90;;;4.40;99.90;;;;;;5010733;28;20222;-50
2023/02/01 05:42:59;;;;;;;2.10;0.80;;;4.30;99.90;;;;;;5009789;28;20203;-51
2023/02/01 05:45:25;;;;;;;4.00;0.80;;;4.20;99.90;;;;;;5017577;28;20548;-52
2023/02/01 05:47:52;;;;;;;4.00;0.90;;;4.20;99.90;;;;;;5017703;28;20204;-56
2023/02/01 05:50:20;;;;;;;1.77;0.70;;;4.10;99.90;;;;;;5014046;28;20196;-53
2023/02/01 05:52:46;;;;;;;3.40;0.80;;;4.00;99.90;;;;;;5008461;28;20741;-54
2023/02/01 05:55:14;;;;;;;2.50;0.70;;;4.00;99.90;;;;;;5013411;28;20232;-51
2023/02/01 05:57:41;;;;;;;3.37;0.73;;;3.90;99.90;;;;;;5009219;28;20196;-51
2023/02/01 06:00:09;;;;;;;4.20;0.87;;;3.90;99.90;;;;;;5013008;28;20220;-47
2023/02/01 06:02:42;;;;;;;2.30;0.57;;;3.90;99.90;;;;;;5010321;28;20249;-54
2023/02/01 06:05:09;;;;;;;3.50;0.50;;;3.90;99.90;;;;;;5009961;28;20297;-52
2023/02/01 06:07:37;;;;;;;1.77;0.90;;;3.90;99.90;;;;;;5013186;27;20668;-55
2023/02/01 06:10:04;;;;;;;4.53;0.97;;;3.90;99.90;;;;;;5009589;27;20196;-53
2023/02/01 06:12:31;;;;;;;1.63;0.43;;;3.90;99.90;;;;;;5006013;28;20215;-56
2023/02/01 06:14:59;;;;;;;1.87;0.60;;;3.80;99.90;;;;;;5002275;28;20340;-49
2023/02/01 06:17:26;;;;;;;0.63;0.63;;;3.80;99.90;;;;;;5013843;28;20249;-52
2023/02/01 06:19:53;;;;;;;2.13;0.60;;;3.80;99.90;;;;;;5010138;28;20251;-52
2023/02/01 06:22:19;;;;;;;1.63;0.47;;;3.80;99.90;;;;;;5018486;28;20215;-49
2023/02/01 06:24:47;;;;;;;1.87;1.17;;;3.70;99.90;;;;;;5001925;28;20234;-54
2023/02/01 06:27:36;;;;;;;1.90;0.50;;;3.70;99.90;;;;;;5011439;28;20342;-55
2023/02/01 06:30:06;;;;;;;3.53;1.17;;;3.70;99.90;;;;;;5010556;28;20293;-49
2023/02/01 06:32:33;;;;;;;3.10;0.63;;;3.60;99.90;;;;;;5007650;28;20220;-55
2023/02/01 06:35:00;;;;;;;10.37;1.30;;;3.60;99.90;;;;;;5007265;28;20227;-53
2023/02/01 06:37:29;;;;;;;9.27;1.50;;;3.70;99.90;;;;;;5007188;28;20279;-54
2023/02/01 06:39:57;;;;;;;1.90;1.40;;;3.70;99.90;;;;;;5002292;27;20224;-48
2023/02/01 06:42:23;;;;;;;4.07;0.70;;;3.70;99.90;;;;;;5010827;28;20212;-52
2023/02/01 06:45:12;;;;;;;5.47;1.03;;;3.70;99.90;;;;;;5016642;28;20380;-49
2023/02/01 06:47:39;;;;;;;8.63;1.30;;;3.70;99.90;;;;;;5005478;27;20208;-54
2023/02/01 06:50:08;;;;;;;5.50;1.20;;;3.70;99.90;;;;;;5001801;28;20220;-53
2023/02/01 06:52:36;;;;;;;4.03;1.50;;;3.70;99.90;;;;;;4992689;28;20331;-50
2023/02/01 06:55:05;;;;;;;7.83;1.87;;;3.70;99.90;;;;;;5004190;27;20281;-51
2023/02/01 06:57:34;;;;;;;8.93;1.73;;;3.70;99.90;;;;;;5011466;28;20193;-49
2023/02/01 07:00:01;;;;;;;11.57;1.93;;;3.80;99.90;;;;;;5013712;28;20302;-53
2023/02/01 07:02:27;;;;;;;5.33;1.30;;;3.80;99.90;;;;;;5009877;28;20925;-49
2023/02/01 07:04:54;;;;;;;11.50;2.23;;;3.80;99.90;;;;;;5011848;28;20629;-49
2023/02/01 07:07:22;;;;;;;12.13;2.23;;;3.90;99.90;;;;;;5016821;28;20199;-55
2023/02/01 07:09:49;;;;;;;9.20;1.87;;;4.00;99.90;;;;;;5018975;28;20706;-51
2023/02/01 07:12:18;;;;;;;11.23;2.70;;;4.10;99.90;;;;;;5000355;28;20651;-55
2023/02/01 07:14:45;;;;;;;10.27;2.27;;;4.10;99.90;;;;;;5003871;28;20314;-50
2023/02/01 07:17:12;;;;;;;15.20;2.53;;;4.10;99.90;;;;;;5006879;28;20232;-60
2023/02/01 07:19:38;;;;;;;20.63;3.23;;;4.20;99.90;;;;;;5003715;28;20247;-48
2023/02/01 07:22:05;;;;;;;16.60;2.43;;;4.30;99.90;;;;;;5016460;28;20203;-55
2023/02/01 07:24:34;;;;;;;11.63;2.70;;;4.40;99.90;;;;;;5014767;28;20228;-56
2023/02/01 07:27:01;;;;;;;13.93;3.07;;;4.40;99.90;;;;;;4990466;28;20243;-55
2023/02/01 07:29:29;;;;;;;17.20;3.20;;;4.50;99.90;;;;;;5013267;28;20213;-50
2023/02/01 07:31:56;;;;;;;15.53;3.30;;;4.60;99.90;;;;;;5003100;28;20276;-51
2023/02/01 07:34:23;;;;;;;25.43;4.07;;;4.60;99.90;;;;;;5011657;28;20236;-48
2023/02/01 07:36:50;;;;;;;16.27;3.23;;;4.60;99.90;;;;;;5009749;28;20220;-54
2023/02/01 07:39:20;;;;;;;15.57;3.30;;;4.60;99.90;;;;;;5014003;28;20215;-53
2023/02/01 07:41:47;;;;;;;21.33;3.40;;;4.70;99.90;;;;;;5003236;28;20245;-56
2023/02/01 07:44:14;;;;;;;13.60;3.43;;;4.70;99.90;;;;;;5008460;28;20282;-51
2023/02/01 07:46:43;;;;;;;22.90;3.63;;;4.80;99.90;;;;;;4998152;28;20215;-55
2023/02/01 07:49:10;;;;;;;19.03;4.03;;;4.80;99.90;;;;;;5013348;28;20196;-49
2023/02/01 07:51:36;;;;;;;16.03;4.10;;;4.90;99.90;;;;;;5010690;28;20231;-56
2023/02/01 07:54:04;;;;;;;18.60;3.90;;;5.00;99.90;;;;;;5016294;28;20950;-48
2023/02/01 07:56:33;;;;;;;23.50;4.23;;;5.00;99.90;;;;;;5015999;28;20197;-51
2023/02/01 07:59:00;;;;;;;15.73;3.83;;;5.10;99.90;;;;;;4993515;28;20188;-49
2023/02/01 08:01:27;;;;;;;18.43;4.07;;;5.10;99.90;;;;;;5018273;28;20307;-51
2023/02/01 08:03:58;;;;;;;20.20;3.80;;;5.10;99.90;;;;;;5000489;28;21066;-53
2023/02/01 08:06:25;;;;;;;24.43;4.60;;;5.10;99.90;;;;;;5010372;28;20286;-51
2023/02/01 08:08:53;;;;;;;20.13;3.60;;;5.10;99.90;;;;;;5014866;28;20282;-54
2023/02/01 08:11:21;;;;;;;25.53;3.50;;;5.10;99.90;;;;;;5013898;28;20544;-47
2023/02/01 08:13:48;;;;;;;21.73;4.17;;;5.10;99.90;;;;;;4998387;28;20228;-54
2023/02/01 08:16:17;;;;;;;16.43;3.53;;;5.10;99.90;;;;;;5008546;28;20211;-51
2023/02/01 08:18:44;;;;;;;19.10;3.67;;;5.10;99.90;;;;;;5009180;28;20215;-53
2023/02/01 08:21:14;;;;;;;23.07;4.07;;;5.20;99.90;;;;;;5014674;27;20211;-49
2023/02/01 08:23:42;;;;;;;23.17;4.20;;;5.20;99.90;;;;;;5012567;28;20223;-55
2023/02/01 08:26:31;;;;;;;21.60;4.10;;;5.30;99.90;;;;;;5015843;27;20223;-48
2023/02/01 08:28:59;;;;;;;22.80;3.83;;;5.30;99.90;;;;;;5008409;27;20200;-48
2023/02/01 08:31:29;;;;;;;23.20;4.07;;;5.40;99.90;;;;;;5016618;28;20208;-49
2023/02/01 08:34:14;;;;;;;22.40;3.77;;;5.40;99.90;;;;;;5014841;27;22517;-47
2023/02/01 08:37:01;;;;;;;21.43;4.53;;;5.50;99.90;;;;;;5001344;27;20291;-51
2023/02/01 08:39:28;;;;;;;19.93;4.03;;;5.50;99.90;;;;;;5021392;28;20202;-48
2023/02/01 08:44:36;;;;;;;18.77;2.73;;;5.60;99.90;;;;;;5018003;27;20251;-51
2023/02/01 08:47:03;;;;;;;15.87;2.87;;;5.60;99.90;;;;;;5004186;27;20798;-47
2023/02/01 08:49:30;;;;;;;18.60;3.20;;;5.60;99.90;;;;;;5019449;28;20285;-47
2023/02/01 08:51:57;;;;;;;14.10;3.20;;;5.60;99.90;;;;;;5004380;27;20204;-46
2023/02/01 08:54:25;;;;;;;16.07;3.00;;;5.60;99.90;;;;;;5014199;28;20331;-50
2023/02/01 08:56:54;;;;;;;10.30;1.80;;;5.50;99.90;;;;;;5015944;28;20321;-55
2023/02/01 08:59:20;;;;;;;6.60;2.17;;;5.50;99.90;;;;;;5016632;27;20254;-51
2023/02/01 09:01:47;;;;;;;12.57;2.73;;;5.60;99.90;;;;;;5002644;27;20251;-54
2023/02/01 09:04:14;;;;;;;15.70;2.87;;;5.60;99.90;;;;;;5016438;27;20235;-46
2023/02/01 09:06:42;;;;;;;14.00;2.67;;;5.70;99.90;;;;;;5004974;27;20262;-55
2023/02/01 09:09:08;;;;;;;15.27;2.40;;;5.80;99.90;;;;;;5011526;28;20219;-49
2023/02/01 09:11:36;;;;;;;14.00;2.40;;;5.90;99.90;;;;;;5017655;28;20560;-53
2023/02/01 09:14:03;;;;;;;14.30;2.83;;;5.90;99.90;;;;;;5004472;27;20217;-50
2023/02/01 09:16:30;;;;;;;8.57;2.23;;;5.90;99.90;;;;;;5003736;27;20200;-48
2023/02/01 09:18:56;;;;;;;18.53;2.80;;;6.00;99.90;;;;;;5006912;27;20200;-55
2023/02/01 09:21:23;;;;;;;15.13;3.20;;;6.00;99.90;;;;;;5011261;28;20215;-48
2023/02/01 09:23:51;;;;;;;17.57;4.00;;;6.00;99.90;;;;;;5007813;28;20259;-55
2023/02/01 09:26:18;;;;;;;19.77;3.23;;;6.10;99.90;;;;;;5016678;28;20219;-50
2023/02/01 09:28:46;;;;;;;15.20;3.37;;;6.10;99.90;;;;;;5013487;28;20204;-54
2023/02/01 09:31:32;;;;;;;12.80;3.10;;;6.10;99.90;;;;;;5013455;27;20554;-46
2023/02/01 09:33:58;;;;;;;16.43;2.73;;;6.20;99.90;;;;;;5002069;27;20231;-49
2023/02/01 09:36:25;;;;;;;22.63;3.23;;;6.30;99.90;;;;;;5014520;27;20200;-50
2023/02/01 09:38:52;;;;;;;13.47;2.93;;;6.40;99.90;;;;;;5007373;28;20204;-54
2023/02/01 09:41:43;;;;;;;12.03;4.13;;;6.50;99.90;;;;;;5006882;28;20216;-51
2023/02/01 09:44:23;;;;;;;18.40;3.80;;;6.50;99.90;;;;;;5013751;27;20209;-49
2023/02/01 09:46:56;;;;;;;14.43;3.40;;;6.50;99.90;;;;;;5006803;27;20204;-55
2023/02/01 09:49:28;;;;;;;20.27;4.00;;;6.50;99.90;;;;;;5019360;28;20264;-49
2023/02/01 09:51:56;;;;;;;13.73;2.73;;;6.50;99.90;;;;;;5011673;28;20644;-54
2023/02/01 09:54:26;;;;;;;16.30;4.30;;;6.60;99.90;;;;;;5010189;28;20227;-48
2023/02/01 09:56:56;;;;;;;15.00;3.03;;;6.60;99.90;;;;;;5010198;27;20216;-54
2023/02/01 09:59:33;;;;;;;17.03;3.10;;;6.60;99.90;;;;;;5018038;28;20679;-46
2023/02/01 10:02:00;;;;;;;12.43;3.83;;;6.60;99.90;;;;;;5015526;28;20302;-48
2023/02/01 10:04:27;;;;;;;11.93;3.13;;;6.60;99.90;;;;;;5010581;27;20231;-52
2023/02/01 10:07:03;;;;;;;18.17;3.40;;;6.60;99.90;;;;;;5017573;27;20197;-54
2023/02/01 10:09:40;;;;;;;15.53;3.63;;;6.60;99.90;;;;;;5020250;28;20207;-50
2023/02/01 10:12:38;;;;;;;17.10;3.60;;;6.60;99.90;;;;;;5005205;28;20200;-51
2023/02/01 10:15:20;;;;;;;16.70;4.17;;;6.60;99.90;;;;;;5012344;27;20208;-53
2023/02/01 10:18:05;;;;;;;20.90;4.90;;;6.50;99.90;;;;;;5011121;28;20203;-55
2023/02/01 10:20:42;;;;;;;20.23;4.53;;;6.30;99.90;;;;;;5016644;28;20227;-46
2023/02/01 10:23:26;;;;;;;18.53;3.23;;;6.00;99.90;;;;;;5008035;28;20293;-51
2023/02/01 10:25:55;;;;;;;28.73;5.47;;;5.90;99.90;;;;;;5013650;27;20196;-54
2023/02/01 10:28:24;;;;;;;17.20;3.20;;;5.80;99.90;;;;;;5013217;28;20564;-50
2023/02/01 10:30:57;;;;;;;13.17;3.03;;;5.80;99.90;;;;;;5006087;28;20224;-55
2023/02/01 10:33:27;;;;;;;17.83;3.63;;;5.70;99.90;;;;;;5003782;27;20200;-48
2023/02/01 10:35:59;;;;;;;17.47;3.40;;;5.70;99.90;;;;;;5022730;27;20204;-55
2023/02/01 10:38:29;;;;;;;18.80;3.73;;;5.70;99.90;;;;;;5010981;28;20212;-45
2023/02/01 10:41:12;;;;;;;23.00;3.80;;;5.80;99.90;;;;;;5015595;27;20215;-54
2023/02/01 10:43:39;;;;;;;20.10;3.63;;;5.90;99.90;;;;;;5011607;28;20556;-52
2023/02/01 10:46:07;;;;;;;19.43;4.27;;;5.90;99.90;;;;;;5025553;27;20915;-46
2023/02/01 10:48:35;;;;;;;27.43;4.13;;;6.00;99.90;;;;;;5018028;28;20203;-47
2023/02/01 10:51:06;;;;;;;22.87;4.30;;;6.00;99.90;;;;;;4996802;27;20195;-46
2023/02/01 10:53:37;;;;;;;15.13;3.17;;;6.00;99.90;;;;;;5009137;28;20200;-46
2023/02/01 10:56:07;;;;;;;19.97;4.13;;;6.10;99.90;;;;;;5028685;27;20303;-46
2023/02/01 10:58:37;;;;;;;10.90;2.93;;;6.10;99.90;;;;;;5011775;28;20213;-48
2023/02/01 11:01:05;;;;;;;14.87;2.87;;;6.10;99.90;;;;;;5013317;28;20268;-48
2023/02/01 11:03:40;;;;;;;16.17;3.50;;;6.10;99.90;;;;;;5015409;28;20192;-50
2023/02/01 11:06:17;;;;;;;21.87;3.70;;;6.10;99.90;;;;;;5002786;28;20195;-49
2023/02/01 11:08:48;;;;;;;16.77;3.80;;;6.10;99.90;;;;;;5008795;28;20203;-52
2023/02/01 11:11:15;;;;;;;25.23;3.70;;;6.20;99.90;;;;;;5012139;28;20923;-46
2023/02/01 11:13:42;;;;;;;13.73;3.20;;;6.20;99.90;;;;;;5009882;28;20558;-53
2023/02/01 11:16:13;;;;;;;12.43;3.00;;;6.20;99.90;;;;;;5014352;28;20192;-47
2023/02/01 11:18:41;;;;;;;12.20;2.50;;;6.20;99.90;;;;;;5001684;28;20223;-54
2023/02/01 11:21:10;;;;;;;16.63;3.33;;;6.20;99.90;;;;;;5003101;28;20239;-49
2023/02/01 11:23:43;;;;;;;15.50;2.67;;;6.10;99.90;;;;;;5010168;28;20223;-54
2023/02/01 11:26:14;;;;;;;18.23;2.73;;;6.10;99.90;;;;;;5008642;28;20253;-46
2023/02/01 11:28:53;;;;;;;16.77;2.63;;;6.20;99.90;;;;;;5007708;28;20724;-55
2023/02/01 11:31:21;;;;;;;16.70;3.30;;;6.20;99.90;;;;;;5006873;28;20648;-51
2023/02/01 11:33:54;;;;;;;20.73;3.23;;;6.20;99.90;;;;;;5009316;28;20208;-51
2023/02/01 11:36:27;;;;;;;15.30;2.90;;;6.20;99.90;;;;;;5005036;28;20204;-47
2023/02/01 11:39:24;;;;;;;20.60;3.53;;;6.20;99.90;;;;;;5009198;28;20289;-52
2023/02/01 11:42:13;;;;;;;10.67;2.03;;;6.20;99.90;;;;;;5007181;28;20230;-47
2023/02/01 11:44:42;;;;;;;12.57;3.20;;;6.20;99.90;;;;;;4995275;28;20232;-49
2023/02/01 11:47:24;;;;;;;15.70;2.77;;;6.30;99.90;;;;;;5017745;28;20215;-49
2023/02/01 11:49:54;;;;;;;10.57;2.10;;;6.30;99.90;;;;;;5009993;28;20283;-48
2023/02/01 11:52:40;;;;;;;10.73;2.83;;;6.30;99.90;;;;;;5003801;27;20819;-52
2023/02/01 11:55:17;;;;;;;14.63;2.37;;;6.40;99.90;;;;;;5016909;28;20226;-50
2023/02/01 11:57:55;;;;;;;15.23;3.60;;;6.40;99.90;;;;;;5011054;27;20200;-51
2023/02/01 12:00:36;;;;;;;17.77;2.67;;;6.40;99.90;;;;;;5012945;28;20282;-54
2023/02/01 12:03:30;;;;;;;12.40;3.73;;;6.30;99.90;;;;;;5019667;28;20196;-47
2023/02/01 12:06:05;;;;;;;17.27;2.13;;;6.30;99.90;;;;;;5010703;28;20573;-50
2023/02/01 12:08:54;;;;;;;11.77;3.13;;;6.30;99.90;;;;;;5005107;27;20269;-50
2023/02/01 12:11:40;;;;;;;17.30;2.43;;;6.30;99.90;;;;;;5016216;28;20532;-54
2023/02/01 12:14:22;;;;;;;11.13;2.70;;;6.20;99.90;;;;;;5008592;28;20554;-48
2023/02/01 12:17:07;;;;;;;10.27;2.43;;;6.20;99.90;;;;;;5009414;28;20723;-49
2023/02/01 12:19:45;;;;;;;13.20;2.63;;;6.10;99.90;;;;;;5009603;28;20203;-48
2023/02/01 12:22:30;;;;;;;14.20;2.23;;;6.10;99.90;;;;;;5014469;27;20900;-54
2023/02/01 12:25:14;;;;;;;12.13;2.23;;;6.00;99.90;;;;;;5016572;28;20239;-46
2023/02/01 12:28:09;;;;;;;14.33;2.10;;;6.00;99.90;;;;;;5018021;27;21200;-47
2023/02/01 12:31:06;;;;;;;11.63;2.10;;;5.90;99.90;;;;;;5015418;28;20275;-49
2023/02/01 12:33:42;;;;;;;12.17;2.10;;;5.80;99.90;;;;;;5010537;27;20204;-49
2023/02/01 12:36:17;;;;;;;13.57;1.90;;;5.80;99.90;;;;;;5008566;28;20205;-51
2023/02/01 12:38:53;;;;;;;4.37;1.50;;;5.70;99.90;;;;;;5031486;27;20207;-48
2023/02/01 12:41:44;;;;;;;5.17;1.70;;;5.60;99.90;;;;;;5012108;28;20255;-52
2023/02/01 12:44:17;;;;;;;3.73;1.10;;;5.50;99.90;;;;;;5004604;28;20233;-52
2023/02/01 12:46:47;;;;;;;3.33;1.13;;;5.40;99.90;;;;;;5017387;28;20201;-49
2023/02/01 12:49:18;;;;;;;5.33;1.40;;;5.30;99.90;;;;;;5010069;28;20823;-52
2023/02/01 12:51:49;;;;;;;4.17;1.10;;;5.30;99.90;;;;;;5004922;28;20279;-48
2023/02/01 12:54:23;;;;;;;0.53;0.40;;;5.20;99.90;;;;;;5008624;28;20695;-51
2023/02/01 12:56:55;;;;;;;2.73;0.60;;;5.10;99.90;;;;;;5018864;27;20697;-48
2023/02/01 12:59:27;;;;;;;6.00;0.70;;;5.10;99.90;;;;;;5011655;28;20241;-53
2023/02/01 13:01:58;;;;;;;2.63;0.60;;;5.10;99.90;;;;;;5014367;28;20240;-50
2023/02/01 13:04:29;;;;;;;5.83;0.70;;;5.00;99.90;;;;;;5007704;28;20300;-52
2023/02/01 13:07:02;;;;;;;3.43;0.63;;;4.90;99.90;;;;;;5010724;28;20207;-49
2023/02/01 13:09:35;;;;;;;1.20;0.50;;;4.90;99.90;;;;;;5011641;28;20204;-46
2023/02/01 13:12:13;;;;;;;1.43;0.50;;;5.00;99.90;;;;;;5012067;28;20208;-46
2023/02/01 13:14:46;;;;;;;0.40;0.30;;;5.00;99.90;;;;;;5014908;28;20212;-46
2023/02/01 13:17:16;;;;;;;2.93;0.60;;;5.00;99.90;;;;;;5007493;28;20235;-53
2023/02/01 13:19:46;;;;;;;1.80;0.40;;;5.00;99.90;;;;;;5010744;28;20983;-46
2023/02/01 13:22:18;;;;;;;1.40;0.60;;;5.10;99.90;;;;;;5019307;27;20784;-49
2023/02/01 13:24:51;;;;;;;2.30;0.47;;;5.30;99.90;;;;;;5009457;28;20338;-46
2023/02/01 13:27:19;;;;;;;0.70;0.50;;;5.50;99.90;;;;;;5003631;28;20651;-53
2023/02/01 13:29:52;;;;;;;3.33;0.60;;;5.60;99.90;;;;;;5017443;28;20196;-47
2023/02/01 13:32:34;;;;;;;6.13;0.50;;;5.70;99.90;;;;;;5009795;28;20196;-52
2023/02/01 13:35:23;;;;;;;0.80;0.40;;;5.70;99.90;;;;;;5008751;28;20702;-47